Time;durP1;ratioP1;P1;durP2;ratioP2;P2;SDS_P1;SDS_P2;PMS_P1;PMS_P2;Temp;Humidity;BMP_temperature;BMP_pressure;BME280_temperature;BME280_humidity;BME280_pressure;Samples;Min_cycle;Max_cycle;Signal;HPM_P1;HPM_P2
2021/03/05 00:01:00;;;;;;;13.15;8.05;;;7.10;99.90;;;;;;5070049;28;20025;-66
2021/03/05 00:03:25;;;;;;;13.77;8.95;;;7.00;99.90;;;;;;5069415;28;20146;-66
2021/03/05 00:05:52;;;;;;;15.68;8.88;;;6.90;99.90;;;;;;5070700;28;20031;-66
2021/03/05 00:08:18;;;;;;;12.50;8.18;;;6.90;99.90;;;;;;5071377;28;20031;-66
2021/03/05 00:10:45;;;;;;;11.05;8.05;;;6.90;99.90;;;;;;5070520;28;20170;-67
2021/03/05 00:13:12;;;;;;;13.50;8.02;;;6.90;99.90;;;;;;5071578;28;20107;-67
2021/03/05 00:15:40;;;;;;;15.45;8.40;;;6.90;99.90;;;;;;5069460;28;20039;-66
2021/03/05 00:18:06;;;;;;;13.50;8.57;;;7.00;99.90;;;;;;5069997;28;20024;-66
2021/03/05 00:20:36;;;;;;;12.48;8.88;;;7.00;99.90;;;;;;5070568;28;20432;-67
2021/03/05 00:23:01;;;;;;;12.45;8.95;;;7.00;99.90;;;;;;5067612;28;20049;-66
2021/03/05 00:25:27;;;;;;;18.70;8.50;;;7.00;99.90;;;;;;5051328;28;20086;-67
2021/03/05 00:27:53;;;;;;;12.25;7.85;;;7.00;99.90;;;;;;5050346;28;20021;-67
2021/03/05 00:30:20;;;;;;;15.23;8.43;;;7.00;99.90;;;;;;5050937;28;20036;-67
2021/03/05 00:32:46;;;;;;;13.10;8.10;;;7.00;99.90;;;;;;5049914;28;20033;-66
2021/03/05 00:35:13;;;;;;;12.93;7.38;;;7.00;99.90;;;;;;5050864;28;20021;-66
2021/03/05 00:37:40;;;;;;;14.77;8.05;;;7.10;99.90;;;;;;5050322;28;20029;-67
2021/03/05 00:40:08;;;;;;;10.55;7.80;;;7.10;99.90;;;;;;5050554;28;20036;-67
2021/03/05 00:42:33;;;;;;;13.02;8.32;;;7.10;99.90;;;;;;5032628;28;20029;-66
2021/03/05 00:44:59;;;;;;;14.70;8.77;;;7.10;99.90;;;;;;5050218;28;20374;-66
2021/03/05 00:47:24;;;;;;;10.90;7.25;;;7.10;99.90;;;;;;5032566;28;20475;-67
2021/03/05 00:49:50;;;;;;;10.90;7.38;;;7.10;99.90;;;;;;5049687;28;20032;-67
2021/03/05 00:52:16;;;;;;;12.75;8.38;;;7.00;99.90;;;;;;5050678;28;20029;-66
2021/03/05 00:54:41;;;;;;;11.02;7.10;;;7.10;99.90;;;;;;5031975;28;20367;-65
2021/03/05 00:57:08;;;;;;;10.43;7.65;;;7.00;99.90;;;;;;5050799;28;20029;-66
2021/03/05 00:59:33;;;;;;;14.55;8.32;;;7.00;99.90;;;;;;5032573;28;20116;-66
2021/03/05 01:02:00;;;;;;;12.35;7.43;;;7.00;99.90;;;;;;5031703;28;20424;-66
2021/03/05 01:04:26;;;;;;;12.02;8.25;;;7.10;99.90;;;;;;5032621;28;20425;-66
2021/03/05 01:06:52;;;;;;;10.43;7.03;;;7.10;99.90;;;;;;5031860;28;20124;-67
2021/03/05 01:09:19;;;;;;;11.18;7.20;;;7.10;99.90;;;;;;5050581;28;20045;-66
2021/03/05 01:11:45;;;;;;;10.98;7.50;;;7.10;99.90;;;;;;5050033;28;20032;-67
2021/03/05 01:14:10;;;;;;;9.65;7.63;;;7.10;99.90;;;;;;5032390;28;20544;-66
2021/03/05 01:16:36;;;;;;;12.45;7.35;;;7.00;99.90;;;;;;5050566;28;20056;-66
2021/03/05 01:19:08;;;;;;;10.13;6.70;;;7.00;99.90;;;;;;5049934;28;20029;-65
2021/03/05 01:21:34;;;;;;;10.00;7.32;;;7.00;99.90;;;;;;5050197;28;20024;-67
2021/03/05 01:24:00;;;;;;;9.77;7.43;;;6.90;99.90;;;;;;5051466;28;20106;-67
2021/03/05 01:26:27;;;;;;;11.50;7.28;;;7.00;99.90;;;;;;5053823;28;20455;-66
2021/03/05 01:28:52;;;;;;;8.88;6.30;;;7.00;99.90;;;;;;5052892;28;20097;-67
2021/03/05 01:31:18;;;;;;;9.73;6.50;;;6.90;99.90;;;;;;5054171;28;20462;-66
2021/03/05 01:33:43;;;;;;;9.27;6.47;;;6.90;99.90;;;;;;5035241;28;20044;-65
2021/03/05 01:36:10;;;;;;;10.10;6.63;;;6.90;99.90;;;;;;5053988;28;20296;-66
2021/03/05 01:38:36;;;;;;;10.02;6.68;;;6.90;99.90;;;;;;5053372;28;20028;-66
2021/03/05 01:41:03;;;;;;;9.02;6.25;;;6.90;99.90;;;;;;5035052;28;20033;-65
2021/03/05 01:43:32;;;;;;;12.60;6.85;;;6.90;99.90;;;;;;5035536;28;20123;-66
2021/03/05 01:45:57;;;;;;;10.35;6.95;;;6.90;99.90;;;;;;5052552;28;20029;-66
2021/03/05 01:48:24;;;;;;;9.25;6.55;;;6.80;99.90;;;;;;5053389;28;20075;-65
2021/03/05 01:50:59;;;;;;;10.20;7.03;;;6.80;99.90;;;;;;5052570;28;20056;-67
2021/03/05 01:53:25;;;;;;;9.27;6.35;;;6.90;99.90;;;;;;5053403;28;20043;-66
2021/03/05 01:55:51;;;;;;;10.13;7.13;;;6.80;99.90;;;;;;5052752;28;20039;-66
2021/03/05 01:58:18;;;;;;;12.27;7.05;;;6.80;99.90;;;;;;5035467;28;20079;-67
2021/03/05 02:00:50;;;;;;;9.75;7.10;;;6.90;99.90;;;;;;5034639;28;20308;-66
2021/03/05 02:03:16;;;;;;;10.30;6.82;;;6.90;99.90;;;;;;5053373;28;20103;-66
2021/03/05 02:05:42;;;;;;;10.70;6.68;;;6.90;99.90;;;;;;5034601;28;20342;-70
2021/03/05 02:08:12;;;;;;;12.10;7.53;;;6.90;99.90;;;;;;5035430;28;20470;-66
2021/03/05 02:10:38;;;;;;;11.45;7.57;;;7.00;99.90;;;;;;5035219;28;20025;-66
2021/03/05 02:13:04;;;;;;;9.73;6.75;;;6.90;99.90;;;;;;5052126;28;20033;-66
2021/03/05 02:15:32;;;;;;;11.13;7.40;;;6.80;99.90;;;;;;5052806;28;20044;-66
2021/03/05 02:18:14;;;;;;;11.02;6.70;;;6.90;99.90;;;;;;5052202;28;20025;-65
2021/03/05 02:21:02;;;;;;;10.02;7.70;;;6.90;99.90;;;;;;5052639;28;20473;-65
2021/03/05 02:23:59;;;;;;;9.48;6.95;;;6.90;99.90;;;;;;5052722;28;20128;-67
2021/03/05 02:26:53;;;;;;;11.20;7.70;;;6.90;99.90;;;;;;5033209;28;20072;-66
2021/03/05 02:29:27;;;;;;;10.52;7.95;;;6.80;99.90;;;;;;5034861;28;20028;-66
2021/03/05 02:31:58;;;;;;;10.82;7.90;;;6.80;99.90;;;;;;5051986;28;20029;-66
2021/03/05 02:34:28;;;;;;;9.87;6.87;;;6.80;99.90;;;;;;5034687;28;20059;-65
2021/03/05 02:37:01;;;;;;;13.13;8.57;;;6.90;99.90;;;;;;5052004;28;20434;-65
2021/03/05 02:39:44;;;;;;;11.40;8.20;;;6.90;99.90;;;;;;5034674;28;20029;-66
2021/03/05 02:42:24;;;;;;;13.13;8.60;;;6.80;99.90;;;;;;5034550;28;20158;-66
2021/03/05 02:44:59;;;;;;;11.50;8.27;;;6.80;99.90;;;;;;5033923;28;20086;-66
2021/03/05 02:47:28;;;;;;;11.00;8.18;;;6.90;99.90;;;;;;5034602;28;20067;-66
2021/03/05 02:49:55;;;;;;;13.10;8.40;;;6.90;99.90;;;;;;5017701;28;20048;-66
2021/03/05 02:52:21;;;;;;;12.20;8.40;;;6.90;99.90;;;;;;5052327;28;20025;-66
2021/03/05 02:54:53;;;;;;;13.70;8.80;;;6.90;99.90;;;;;;5051630;28;20037;-66
2021/03/05 02:57:21;;;;;;;13.68;8.68;;;6.90;99.90;;;;;;5034504;28;20033;-66
2021/03/05 02:59:48;;;;;;;14.30;8.30;;;6.90;99.90;;;;;;5017178;28;20025;-66
2021/03/05 03:02:15;;;;;;;12.27;8.18;;;6.90;99.90;;;;;;5051839;28;20021;-66
2021/03/05 03:04:43;;;;;;;13.27;8.30;;;6.80;99.90;;;;;;5051661;28;20040;-65
2021/03/05 03:07:12;;;;;;;13.63;9.70;;;6.80;99.90;;;;;;5051389;28;20029;-65
2021/03/05 03:09:40;;;;;;;11.75;8.43;;;6.80;99.90;;;;;;5051691;28;20113;-66
2021/03/05 03:12:09;;;;;;;11.77;7.75;;;6.80;99.90;;;;;;5051120;28;20035;-66
2021/03/05 03:14:38;;;;;;;13.63;9.27;;;6.80;99.90;;;;;;5033856;28;20115;-66
2021/03/05 03:17:07;;;;;;;12.95;9.00;;;6.80;99.90;;;;;;5051139;28;20033;-66
2021/03/05 03:19:34;;;;;;;14.68;9.27;;;6.80;99.90;;;;;;5051870;28;20029;-66
2021/03/05 03:22:01;;;;;;;14.10;9.18;;;6.80;99.90;;;;;;5051115;28;20166;-67
2021/03/05 03:24:27;;;;;;;15.90;9.95;;;6.80;99.90;;;;;;5051414;28;20059;-66
2021/03/05 03:26:52;;;;;;;13.15;8.70;;;6.80;99.90;;;;;;5033169;28;20514;-67
2021/03/05 03:29:18;;;;;;;17.60;9.43;;;6.80;99.90;;;;;;5051845;28;20037;-65
2021/03/05 03:31:44;;;;;;;12.95;9.32;;;6.80;99.90;;;;;;5033465;28;20525;-66
2021/03/05 03:34:11;;;;;;;15.90;9.60;;;6.80;99.90;;;;;;5050471;28;20103;-65
2021/03/05 03:36:39;;;;;;;14.43;9.30;;;6.70;99.90;;;;;;5051514;28;20033;-65
2021/03/05 03:39:06;;;;;;;14.23;9.25;;;6.70;99.90;;;;;;5032689;28;20032;-66
2021/03/05 03:41:34;;;;;;;17.88;9.70;;;6.70;99.90;;;;;;5032983;28;20021;-65
2021/03/05 03:44:00;;;;;;;15.60;9.98;;;6.80;99.90;;;;;;5050069;28;20021;-65
2021/03/05 03:46:27;;;;;;;15.00;9.25;;;6.80;99.90;;;;;;5032794;28;20086;-65
2021/03/05 03:49:00;;;;;;;15.82;9.23;;;6.70;99.90;;;;;;5050261;28;20032;-65
2021/03/05 03:51:28;;;;;;;15.65;9.85;;;6.70;99.90;;;;;;5050939;28;20542;-65
2021/03/05 03:53:56;;;;;;;13.07;8.57;;;6.80;99.90;;;;;;5050291;28;20033;-65
2021/03/05 03:56:25;;;;;;;9.88;7.30;;;6.70;99.90;;;;;;5051277;28;20055;-65
2021/03/05 03:58:53;;;;;;;11.45;7.68;;;6.70;99.90;;;;;;5050429;28;20086;-65
2021/03/05 04:01:21;;;;;;;13.15;7.43;;;6.60;99.90;;;;;;5051104;28;20032;-66
2021/03/05 04:03:51;;;;;;;10.52;7.40;;;6.60;99.90;;;;;;5050714;28;20107;-65
2021/03/05 04:06:25;;;;;;;11.95;7.35;;;6.50;99.90;;;;;;5050819;28;20035;-65
2021/03/05 04:08:52;;;;;;;11.25;7.35;;;6.50;99.90;;;;;;5050199;28;20104;-66
2021/03/05 04:11:18;;;;;;;11.52;7.82;;;6.60;99.90;;;;;;5051021;28;20025;-66
2021/03/05 04:13:45;;;;;;;13.23;8.77;;;6.60;99.90;;;;;;5032596;28;20029;-65
2021/03/05 04:16:12;;;;;;;11.80;7.75;;;6.60;99.90;;;;;;5050363;28;20075;-65
2021/03/05 04:18:38;;;;;;;19.50;8.38;;;6.60;99.90;;;;;;5050710;28;20456;-65
2021/03/05 04:21:13;;;;;;;12.02;7.32;;;6.60;99.90;;;;;;5032091;28;20028;-65
2021/03/05 04:23:39;;;;;;;15.00;8.38;;;6.60;99.90;;;;;;5050636;28;20140;-65
2021/03/05 04:26:05;;;;;;;12.15;8.07;;;6.60;99.90;;;;;;5050425;28;20446;-65
2021/03/05 04:28:30;;;;;;;10.60;7.57;;;6.70;99.90;;;;;;5050611;28;20108;-65
2021/03/05 04:30:56;;;;;;;12.27;8.93;;;6.60;99.90;;;;;;5032104;28;20063;-65
2021/03/05 04:33:22;;;;;;;11.63;7.25;;;6.60;99.90;;;;;;5050575;28;20060;-64
2021/03/05 04:35:48;;;;;;;10.48;7.72;;;6.50;99.90;;;;;;5050478;28;20155;-65
2021/03/05 04:38:13;;;;;;;10.98;7.85;;;6.40;99.90;;;;;;5049967;28;20153;-66
2021/03/05 04:40:39;;;;;;;11.73;7.95;;;6.40;99.90;;;;;;5032866;28;20411;-66
2021/03/05 04:43:04;;;;;;;11.60;7.28;;;6.50;99.90;;;;;;5049447;28;20108;-65
2021/03/05 04:45:30;;;;;;;14.45;8.45;;;6.50;99.90;;;;;;5050385;28;20033;-65
2021/03/05 04:47:56;;;;;;;14.65;8.82;;;6.50;99.90;;;;;;5049783;28;20021;-65
2021/03/05 04:50:21;;;;;;;12.50;6.63;;;6.50;99.90;;;;;;5032099;28;20029;-65
2021/03/05 04:52:47;;;;;;;12.90;6.80;;;6.50;99.90;;;;;;5050061;28;20043;-66
2021/03/05 04:55:13;;;;;;;10.73;7.25;;;6.50;99.90;;;;;;5049339;28;20432;-65
2021/03/05 04:57:39;;;;;;;12.80;7.07;;;6.50;99.90;;;;;;5032232;28;20048;-65
2021/03/05 05:00:06;;;;;;;13.15;6.85;;;6.50;99.90;;;;;;5053490;28;20032;-66
2021/03/05 05:02:31;;;;;;;10.98;6.72;;;6.40;99.90;;;;;;5053787;28;20040;-66
2021/03/05 05:04:57;;;;;;;10.77;7.03;;;6.40;99.90;;;;;;5035497;28;20033;-67
2021/03/05 05:07:23;;;;;;;11.40;7.07;;;6.40;99.90;;;;;;5053726;28;20489;-66
2021/03/05 05:09:49;;;;;;;9.93;6.32;;;6.30;99.90;;;;;;5053408;28;20136;-65
2021/03/05 05:12:14;;;;;;;12.80;6.70;;;6.50;99.90;;;;;;5052784;28;20112;-66
2021/03/05 05:14:40;;;;;;;14.98;7.30;;;6.40;99.90;;;;;;5052991;28;20047;-66
2021/03/05 05:17:06;;;;;;;12.95;6.78;;;6.50;99.90;;;;;;5052150;28;20056;-65
2021/03/05 05:19:31;;;;;;;17.45;6.57;;;6.40;99.90;;;;;;5053341;28;20462;-68
2021/03/05 05:21:57;;;;;;;13.52;7.40;;;6.50;99.90;;;;;;5052466;28;20359;-71
2021/03/05 05:24:23;;;;;;;11.73;7.15;;;6.50;99.90;;;;;;5055042;28;20128;-64
2021/03/05 05:26:49;;;;;;;9.27;6.60;;;6.40;99.90;;;;;;5034003;28;20029;-64
2021/03/05 05:29:15;;;;;;;9.63;6.43;;;6.40;99.90;;;;;;5034279;28;20031;-64
2021/03/05 05:31:40;;;;;;;13.30;6.55;;;6.40;99.90;;;;;;5053654;28;20025;-63
2021/03/05 05:34:06;;;;;;;11.45;7.18;;;6.40;99.90;;;;;;5034325;28;20039;-66
2021/03/05 05:36:32;;;;;;;10.43;7.50;;;6.40;99.90;;;;;;5053183;28;20025;-66
2021/03/05 05:38:57;;;;;;;15.15;7.30;;;6.30;99.90;;;;;;5034148;28;20024;-71
2021/03/05 05:41:24;;;;;;;11.38;6.80;;;6.20;99.90;;;;;;5034981;28;20061;-66
2021/03/05 05:43:50;;;;;;;14.38;6.93;;;6.30;99.90;;;;;;5052982;28;20033;-66
2021/03/05 05:46:20;;;;;;;13.38;8.02;;;6.40;99.90;;;;;;5034256;28;20120;-66
2021/03/05 05:48:47;;;;;;;14.57;7.00;;;6.40;99.90;;;;;;5035430;28;20112;-65
2021/03/05 05:51:21;;;;;;;12.57;6.95;;;6.40;99.90;;;;;;5034420;28;20029;-66
2021/03/05 05:53:47;;;;;;;18.95;7.10;;;6.30;99.90;;;;;;5053209;28;20455;-63
2021/03/05 05:56:19;;;;;;;17.80;8.05;;;6.30;99.90;;;;;;5033380;28;20036;-64
2021/03/05 05:58:45;;;;;;;13.32;6.93;;;6.40;99.90;;;;;;5052987;28;20037;-66
2021/03/05 06:01:12;;;;;;;14.77;8.68;;;6.30;99.90;;;;;;5034059;28;20029;-66
2021/03/05 06:03:38;;;;;;;12.93;7.35;;;6.30;99.90;;;;;;5053104;28;20037;-66
2021/03/05 06:06:04;;;;;;;15.80;7.80;;;6.30;99.90;;;;;;5052438;28;20029;-65
2021/03/05 06:08:31;;;;;;;16.88;8.00;;;6.30;99.90;;;;;;5052594;28;20380;-65
2021/03/05 06:10:56;;;;;;;14.63;7.78;;;6.20;99.90;;;;;;5051901;28;20041;-68
2021/03/05 06:13:26;;;;;;;17.58;7.90;;;6.30;99.90;;;;;;5034650;28;20036;-67
2021/03/05 06:16:17;;;;;;;15.68;6.80;;;6.20;99.90;;;;;;5052785;28;20082;-65
2021/03/05 06:18:44;;;;;;;15.55;7.25;;;6.20;99.90;;;;;;5034861;28;20120;-65
2021/03/05 06:21:11;;;;;;;18.52;6.88;;;6.20;99.90;;;;;;5052086;28;20079;-66
2021/03/05 06:23:59;;;;;;;15.77;7.75;;;6.20;99.90;;;;;;5052781;28;20052;-65
2021/03/05 06:26:25;;;;;;;14.35;7.40;;;6.30;99.90;;;;;;5035705;28;20112;-65
2021/03/05 06:29:05;;;;;;;15.10;7.80;;;6.20;99.90;;;;;;5053368;28;20112;-69
2021/03/05 06:31:32;;;;;;;19.92;7.63;;;6.20;99.90;;;;;;5052978;28;20025;-66
2021/03/05 06:34:03;;;;;;;23.17;7.90;;;6.20;99.90;;;;;;5052867;28;20025;-72
2021/03/05 06:36:29;;;;;;;22.20;8.77;;;6.30;99.90;;;;;;5052879;28;20025;-66
2021/03/05 06:38:55;;;;;;;18.10;7.95;;;6.30;99.90;;;;;;5052612;28;20363;-66
2021/03/05 06:41:29;;;;;;;14.15;7.18;;;6.40;99.90;;;;;;5034659;28;20025;-66
2021/03/05 06:43:57;;;;;;;15.10;7.55;;;6.30;99.90;;;;;;5034208;28;20037;-66
2021/03/05 06:46:39;;;;;;;20.30;7.18;;;6.30;99.90;;;;;;5034161;28;20028;-66
2021/03/05 06:49:13;;;;;;;10.55;6.40;;;6.30;99.90;;;;;;5052338;28;20025;-67
2021/03/05 06:51:40;;;;;;;13.35;7.57;;;6.30;99.90;;;;;;5035286;28;20029;-66
2021/03/05 06:54:13;;;;;;;19.67;7.45;;;6.20;99.90;;;;;;5052379;28;20029;-66
2021/03/05 06:56:41;;;;;;;14.75;7.90;;;6.30;99.90;;;;;;5035173;28;20025;-66
2021/03/05 06:59:11;;;;;;;14.70;6.90;;;6.30;99.90;;;;;;5052420;28;20032;-67
2021/03/05 07:01:54;;;;;;;14.30;7.72;;;6.30;99.90;;;;;;5035167;28;20056;-65
2021/03/05 07:04:23;;;;;;;15.30;6.63;;;6.40;99.90;;;;;;5034423;28;20098;-66
2021/03/05 07:06:59;;;;;;;14.20;6.78;;;6.40;99.90;;;;;;5034898;28;20033;-66
2021/03/05 07:09:34;;;;;;;13.35;7.97;;;6.40;99.90;;;;;;5035037;28;20036;-67
2021/03/05 07:12:05;;;;;;;15.25;6.97;;;6.30;99.90;;;;;;5034204;28;20060;-74
2021/03/05 07:14:33;;;;;;;19.77;7.85;;;6.30;99.90;;;;;;5034936;28;20060;-68
2021/03/05 07:17:01;;;;;;;17.67;8.02;;;6.40;99.90;;;;;;5034385;28;20222;-65
2021/03/05 07:19:29;;;;;;;24.58;7.90;;;6.50;99.90;;;;;;5052648;28;20466;-67
2021/03/05 07:21:55;;;;;;;15.70;7.78;;;6.50;99.90;;;;;;5051411;28;20067;-67
2021/03/05 07:24:24;;;;;;;12.23;8.15;;;6.40;99.90;;;;;;5053698;28;20279;-66
2021/03/05 07:26:59;;;;;;;15.48;7.85;;;6.50;99.90;;;;;;5071115;28;20066;-66
2021/03/05 07:29:38;;;;;;;14.52;6.80;;;6.50;99.90;;;;;;5071116;28;20463;-66
2021/03/05 07:32:08;;;;;;;11.15;6.45;;;6.40;99.90;;;;;;5069541;28;20027;-67
2021/03/05 07:34:58;;;;;;;10.13;6.63;;;6.20;99.90;;;;;;5069700;28;20127;-66
2021/03/05 07:37:49;;;;;;;10.35;6.90;;;6.10;99.90;;;;;;5069851;28;20025;-67
2021/03/05 07:40:16;;;;;;;9.85;5.88;;;5.90;99.90;;;;;;5070914;28;20532;-66
2021/03/05 07:42:41;;;;;;;10.88;6.97;;;5.80;99.90;;;;;;5070426;28;20430;-65
2021/03/05 07:45:09;;;;;;;12.25;7.47;;;5.80;99.90;;;;;;5071024;28;20028;-66
2021/03/05 07:47:40;;;;;;;11.05;6.57;;;5.70;99.90;;;;;;5071950;28;20025;-67
2021/03/05 07:50:09;;;;;;;14.05;7.78;;;5.70;99.90;;;;;;5069839;28;20036;-67
2021/03/05 07:52:36;;;;;;;9.57;6.05;;;5.80;99.90;;;;;;5069869;28;20029;-66
2021/03/05 07:55:02;;;;;;;13.48;7.78;;;6.00;99.90;;;;;;5071517;28;20497;-66
2021/03/05 07:57:31;;;;;;;13.07;8.25;;;6.00;99.90;;;;;;5069970;28;20059;-66
2021/03/05 07:59:59;;;;;;;12.63;8.45;;;5.90;99.90;;;;;;5071227;28;20028;-66
2021/03/05 08:02:45;;;;;;;11.55;7.82;;;6.00;99.90;;;;;;5069357;28;20033;-66
2021/03/05 08:05:14;;;;;;;11.82;6.80;;;6.10;99.90;;;;;;5070298;28;20074;-67
2021/03/05 08:07:40;;;;;;;13.32;8.45;;;6.20;99.90;;;;;;5069707;28;20130;-66
2021/03/05 08:10:06;;;;;;;13.52;7.85;;;6.20;99.90;;;;;;5069148;28;20116;-66
2021/03/05 08:12:42;;;;;;;11.43;8.32;;;6.20;99.90;;;;;;5071109;28;20039;-66
2021/03/05 08:15:08;;;;;;;15.63;8.45;;;6.30;99.90;;;;;;5069137;28;20036;-67
2021/03/05 08:17:35;;;;;;;14.07;9.45;;;6.40;99.90;;;;;;5070974;28;20052;-66
2021/03/05 08:20:04;;;;;;;14.70;9.30;;;6.40;99.90;;;;;;5069543;28;20156;-66
2021/03/05 08:22:31;;;;;;;13.95;8.57;;;6.50;99.90;;;;;;5070916;28;20493;-66
2021/03/05 08:25:27;;;;;;;15.63;8.98;;;6.40;99.90;;;;;;5055509;28;20049;-67
2021/03/05 08:27:53;;;;;;;16.33;8.50;;;6.40;99.90;;;;;;5033157;28;20086;-67
2021/03/05 08:30:28;;;;;;;12.95;8.35;;;6.50;99.90;;;;;;5050218;28;20041;-67
2021/03/05 08:32:55;;;;;;;14.15;8.73;;;6.50;99.90;;;;;;5034922;28;20029;-66
2021/03/05 08:35:30;;;;;;;11.40;7.43;;;6.50;99.90;;;;;;5054353;28;20039;-66
2021/03/05 08:38:08;;;;;;;11.40;7.00;;;6.50;99.90;;;;;;5054887;28;20021;-66
2021/03/05 08:40:43;;;;;;;12.23;7.95;;;6.60;99.90;;;;;;5037265;28;20021;-68
2021/03/05 08:43:09;;;;;;;11.23;8.23;;;6.50;99.90;;;;;;5035966;28;20544;-67
2021/03/05 08:45:39;;;;;;;12.05;8.48;;;6.50;99.90;;;;;;5036630;28;20037;-66
2021/03/05 08:48:05;;;;;;;12.15;8.55;;;6.70;99.90;;;;;;5036256;28;20029;-67
2021/03/05 08:50:39;;;;;;;11.70;8.23;;;6.70;99.90;;;;;;5054659;28;20032;-67
2021/03/05 08:53:07;;;;;;;14.25;8.73;;;6.80;99.90;;;;;;5054403;28;20029;-67
2021/03/05 08:55:38;;;;;;;13.95;8.05;;;7.00;99.90;;;;;;5036641;28;20362;-67
2021/03/05 08:58:04;;;;;;;12.05;7.57;;;7.00;99.90;;;;;;5054998;28;20071;-67
2021/03/05 09:00:32;;;;;;;10.75;7.35;;;7.10;99.90;;;;;;5036064;28;20393;-66
2021/03/05 09:03:12;;;;;;;11.38;8.15;;;7.10;99.90;;;;;;5036724;28;20036;-66
2021/03/05 09:05:41;;;;;;;12.48;7.45;;;7.30;99.90;;;;;;5054304;28;20033;-66
2021/03/05 09:08:09;;;;;;;10.55;7.18;;;7.40;99.90;;;;;;5057514;28;20078;-72
2021/03/05 09:10:56;;;;;;;12.63;6.25;;;7.30;99.90;;;;;;5061353;28;20103;-66
2021/03/05 09:13:30;;;;;;;11.82;6.32;;;7.30;99.90;;;;;;5061379;28;20429;-67
2021/03/05 09:15:59;;;;;;;10.30;7.20;;;7.40;99.90;;;;;;5043061;28;20088;-67
2021/03/05 09:18:35;;;;;;;12.63;7.78;;;7.40;99.90;;;;;;5061473;28;20016;-67
2021/03/05 09:21:07;;;;;;;9.98;6.70;;;7.40;99.90;;;;;;5046028;28;20108;-68
2021/03/05 09:23:37;;;;;;;12.80;6.45;;;7.50;99.90;;;;;;5055027;28;20319;-66
2021/03/05 09:26:05;;;;;;;10.25;6.72;;;7.70;99.90;;;;;;5054666;28;20040;-66
2021/03/05 09:28:48;;;;;;;10.35;6.50;;;7.90;99.90;;;;;;5073070;28;20446;-66
2021/03/05 09:31:25;;;;;;;12.27;6.43;;;7.70;99.90;;;;;;5073477;28;20029;-67
2021/03/05 09:33:50;;;;;;;17.85;7.45;;;7.80;99.90;;;;;;5040274;28;20078;-67
2021/03/05 09:36:21;;;;;;;14.40;7.28;;;7.80;99.90;;;;;;5073414;28;20028;-66
2021/03/05 09:38:53;;;;;;;10.80;6.30;;;8.10;99.90;;;;;;5073704;28;20111;-67
2021/03/05 09:41:25;;;;;;;9.88;6.00;;;7.90;99.90;;;;;;5055049;28;20033;-66
2021/03/05 09:44:04;;;;;;;12.57;6.15;;;7.90;99.90;;;;;;5054425;28;20028;-67
2021/03/05 09:46:35;;;;;;;9.77;5.93;;;7.90;99.90;;;;;;5073073;28;20036;-67
2021/03/05 09:49:23;;;;;;;8.93;6.00;;;8.10;99.90;;;;;;5055834;28;20025;-67
2021/03/05 09:51:48;;;;;;;8.93;6.18;;;8.20;99.90;;;;;;5055479;28;20032;-67
2021/03/05 09:54:14;;;;;;;12.30;6.22;;;8.40;99.90;;;;;;5072194;28;20028;-67
2021/03/05 09:56:42;;;;;;;13.05;6.55;;;8.40;99.90;;;;;;5073279;28;20028;-66
2021/03/05 09:59:07;;;;;;;10.45;5.82;;;8.50;99.90;;;;;;5055227;28;20439;-65
2021/03/05 10:01:39;;;;;;;14.85;7.05;;;8.20;99.90;;;;;;5072521;28;20025;-66
2021/03/05 10:04:05;;;;;;;9.48;6.30;;;8.00;99.90;;;;;;5073908;28;20063;-66
2021/03/05 10:06:32;;;;;;;11.98;6.82;;;8.10;99.80;;;;;;5072620;28;20043;-67
2021/03/05 10:09:11;;;;;;;10.32;5.95;;;8.20;99.10;;;;;;5072999;28;20085;-66
2021/03/05 10:11:47;;;;;;;14.40;8.23;;;8.30;98.80;;;;;;5073280;28;20027;-66
2021/03/05 10:14:23;;;;;;;11.07;6.72;;;8.30;98.50;;;;;;5054191;28;20370;-67
2021/03/05 10:16:49;;;;;;;10.93;6.30;;;8.50;97.60;;;;;;5040074;28;20050;-67
2021/03/05 10:19:17;;;;;;;9.32;6.30;;;8.80;97.40;;;;;;5058459;28;20030;-66
2021/03/05 10:21:55;;;;;;;10.20;6.35;;;8.90;96.50;;;;;;5058721;28;20065;-66
2021/03/05 10:24:25;;;;;;;14.80;7.53;;;9.30;95.70;;;;;;5057221;28;20060;-68
2021/03/05 10:27:21;;;;;;;11.25;6.07;;;9.70;94.90;;;;;;5052622;28;20481;-66
2021/03/05 10:29:52;;;;;;;10.38;6.20;;;10.20;94.00;;;;;;5041007;28;20087;-68
2021/03/05 10:32:28;;;;;;;7.63;6.07;;;10.50;93.20;;;;;;5042601;28;20021;-66
2021/03/05 10:34:55;;;;;;;9.20;5.93;;;11.00;92.10;;;;;;5054240;28;20028;-66
2021/03/05 10:37:22;;;;;;;8.05;5.97;;;11.10;98.90;;;;;;5038253;28;20040;-65
2021/03/05 10:39:49;;;;;;;12.05;6.50;;;10.90;89.20;;;;;;5059189;28;20124;-65
2021/03/05 10:42:16;;;;;;;9.10;6.25;;;10.90;88.70;;;;;;5040179;28;20039;-64
2021/03/05 10:44:46;;;;;;;8.32;6.38;;;10.90;88.50;;;;;;5043719;28;20032;-66
2021/03/05 10:47:14;;;;;;;9.50;6.00;;;11.20;88.60;;;;;;5038107;28;20359;-68
2021/03/05 10:49:41;;;;;;;9.40;6.72;;;11.20;88.40;;;;;;5041920;28;20024;-66
2021/03/05 10:52:12;;;;;;;8.98;6.18;;;11.90;87.10;;;;;;5052009;28;20374;-66
2021/03/05 10:54:43;;;;;;;16.95;6.43;;;12.40;83.70;;;;;;5033650;28;20035;-66
2021/03/05 10:57:12;;;;;;;8.35;5.82;;;12.30;81.10;;;;;;5050500;28;20096;-66
2021/03/05 10:59:38;;;;;;;16.88;6.88;;;12.10;80.60;;;;;;5033582;28;20417;-67
2021/03/05 11:02:05;;;;;;;8.70;5.43;;;12.00;80.60;;;;;;5051902;28;20029;-65
2021/03/05 11:04:30;;;;;;;7.82;6.03;;;12.00;79.30;;;;;;5032872;28;20036;-68
2021/03/05 11:06:56;;;;;;;9.38;6.57;;;11.60;79.10;;;;;;5033506;28;20033;-67
2021/03/05 11:09:27;;;;;;;8.70;6.82;;;11.40;80.20;;;;;;5051570;28;20035;-67
2021/03/05 11:11:54;;;;;;;7.25;6.18;;;11.10;79.60;;;;;;5051757;28;20088;-66
2021/03/05 11:14:20;;;;;;;7.53;5.32;;;10.70;80.60;;;;;;5033940;28;20469;-68
2021/03/05 11:16:46;;;;;;;12.27;6.20;;;10.70;81.10;;;;;;5052664;28;20055;-67
2021/03/05 11:19:12;;;;;;;8.15;6.57;;;11.30;83.30;;;;;;5034007;28;20088;-69
2021/03/05 11:21:39;;;;;;;10.40;6.32;;;11.70;79.60;;;;;;5051517;28;20032;-66
2021/03/05 11:24:06;;;;;;;10.88;6.30;;;11.80;78.60;;;;;;5046170;28;20060;-69
2021/03/05 11:26:32;;;;;;;11.13;7.93;;;12.00;79.40;;;;;;5070520;28;20039;-68
2021/03/05 11:28:58;;;;;;;10.60;7.53;;;12.40;76.60;;;;;;5069847;28;20403;-67
2021/03/05 11:31:24;;;;;;;10.57;6.13;;;12.80;75.40;;;;;;5069850;28;20063;-67
2021/03/05 11:33:50;;;;;;;15.65;6.45;;;12.80;74.30;;;;;;5069153;28;20470;-66
2021/03/05 11:36:17;;;;;;;8.43;5.70;;;12.80;77.20;;;;;;5068776;28;20470;-66
2021/03/05 11:38:44;;;;;;;11.50;6.90;;;12.70;76.90;;;;;;5070642;28;20025;-66
2021/03/05 11:41:11;;;;;;;6.93;5.68;;;12.70;77.80;;;;;;5068826;28;20039;-67
2021/03/05 11:43:48;;;;;;;10.85;5.72;;;12.40;77.70;;;;;;5069771;28;20185;-66
2021/03/05 11:46:16;;;;;;;7.28;5.90;;;13.00;78.50;;;;;;5069897;28;20021;-69
2021/03/05 11:48:42;;;;;;;8.45;5.50;;;13.10;72.00;;;;;;5070541;28;20024;-66
2021/03/05 11:51:08;;;;;;;6.30;5.10;;;12.90;71.60;;;;;;5070463;28;20472;-68
2021/03/05 11:53:35;;;;;;;9.52;6.30;;;13.20;76.70;;;;;;5070086;28;20036;-68
2021/03/05 11:56:02;;;;;;;9.23;5.82;;;12.70;76.60;;;;;;5071097;28;20056;-67
2021/03/05 11:58:27;;;;;;;6.70;5.72;;;12.60;78.10;;;;;;5069862;28;20020;-67
2021/03/05 12:00:53;;;;;;;11.82;6.53;;;12.20;78.00;;;;;;5068825;28;20098;-67
2021/03/05 12:03:19;;;;;;;7.97;5.75;;;12.00;78.20;;;;;;5070283;28;20116;-67
2021/03/05 12:05:45;;;;;;;11.43;6.03;;;11.80;78.60;;;;;;5070650;28;20086;-66
2021/03/05 12:08:10;;;;;;;7.97;6.25;;;12.00;80.00;;;;;;5069137;28;20036;-67
2021/03/05 12:10:36;;;;;;;9.38;6.40;;;12.10;79.30;;;;;;5068391;28;20048;-67
2021/03/05 12:13:02;;;;;;;8.23;5.70;;;12.20;78.10;;;;;;5068717;28;20040;-66
2021/03/05 12:15:28;;;;;;;11.25;5.68;;;12.10;77.70;;;;;;5068705;28;20450;-68
2021/03/05 12:17:53;;;;;;;10.07;7.80;;;11.90;78.40;;;;;;5069054;28;20025;-66
2021/03/05 12:20:19;;;;;;;12.02;6.18;;;11.60;79.00;;;;;;5068197;28;20119;-67
2021/03/05 12:22:45;;;;;;;8.25;6.07;;;11.50;78.50;;;;;;5070179;28;20109;-66
2021/03/05 12:25:11;;;;;;;8.50;5.47;;;11.40;79.70;;;;;;5054092;28;20053;-66
2021/03/05 12:27:37;;;;;;;10.43;6.32;;;11.20;79.60;;;;;;5049960;28;20439;-67
2021/03/05 12:30:04;;;;;;;7.38;5.20;;;11.10;79.60;;;;;;5050264;28;20029;-66
2021/03/05 12:32:29;;;;;;;11.18;5.40;;;10.90;79.80;;;;;;5031617;28;20025;-66
2021/03/05 12:34:55;;;;;;;10.00;5.40;;;10.80;79.20;;;;;;5050242;28;20090;-67
2021/03/05 12:37:21;;;;;;;9.20;5.85;;;10.50;81.30;;;;;;5049606;28;20029;-67
2021/03/05 12:39:47;;;;;;;5.95;5.10;;;10.30;82.50;;;;;;5050189;28;20104;-65
2021/03/05 12:42:13;;;;;;;7.55;5.70;;;10.20;78.80;;;;;;5032508;28;20036;-66
2021/03/05 12:44:38;;;;;;;7.82;5.57;;;9.90;76.90;;;;;;5049729;28;20033;-67
2021/03/05 12:47:04;;;;;;;8.90;5.03;;;9.90;78.80;;;;;;5050349;28;20491;-67
2021/03/05 12:49:30;;;;;;;6.72;5.38;;;9.80;79.30;;;;;;5049373;28;20119;-67
2021/03/05 12:51:56;;;;;;;8.02;4.97;;;9.70;78.80;;;;;;5050143;28;20324;-68
2021/03/05 12:54:22;;;;;;;7.68;4.40;;;9.80;79.80;;;;;;5031713;28;20509;-67
2021/03/05 12:56:47;;;;;;;9.48;4.45;;;9.60;80.00;;;;;;5049949;28;20037;-66